createdAt,value
2023-04-01T00:01:29.810Z,2.87
2023-04-01T00:03:57.302Z,3.30
2023-04-01T00:06:25.058Z,3.30
2023-04-01T00:08:52.248Z,3.30
2023-04-01T00:11:20.589Z,3.23
2023-04-01T00:13:48.276Z,3.30
2023-04-01T00:16:21.659Z,3.43
2023-04-01T00:18:51.086Z,3.20
2023-04-01T00:21:18.966Z,3.23
2023-04-01T00:23:45.986Z,3.30
2023-04-01T00:26:13.708Z,3.30
2023-04-01T00:28:42.740Z,3.63
2023-04-01T00:31:10.811Z,3.30
2023-04-01T00:33:38.399Z,3.67
2023-04-01T00:36:10.781Z,4.13
2023-04-01T00:38:38.789Z,3.47
2023-04-01T00:41:06.935Z,4.40
2023-04-01T00:43:35.129Z,4.00
2023-04-01T00:46:01.971Z,3.80
2023-04-01T00:48:36.176Z,4.07
2023-04-01T00:51:08.380Z,3.50
2023-04-01T00:53:41.244Z,3.80
2023-04-01T00:56:12.894Z,3.50
2023-04-01T00:58:44.239Z,3.57
2023-04-01T01:01:11.521Z,3.53
2023-04-01T01:03:38.703Z,3.37
2023-04-01T01:06:22.914Z,3.57
2023-04-01T01:09:08.612Z,3.20
2023-04-01T01:12:05.065Z,3.10
2023-04-01T01:15:01.661Z,2.67
2023-04-01T01:17:57.126Z,2.40
2023-04-01T01:20:38.299Z,2.90
2023-04-01T01:23:33.252Z,2.73
2023-04-01T01:26:02.938Z,2.27
2023-04-01T01:28:54.040Z,2.47
2023-04-01T01:31:27.195Z,1.20
2023-04-01T01:34:17.047Z,0.90
2023-04-01T01:36:46.826Z,1.20
2023-04-01T01:39:14.828Z,1.53
2023-04-01T01:41:44.582Z,1.90
2023-04-01T01:44:13.584Z,2.17
2023-04-01T01:46:42.535Z,2.87
2023-04-01T01:49:12.828Z,2.23
2023-04-01T01:51:40.905Z,1.77
2023-04-01T01:54:07.725Z,1.40
2023-04-01T01:56:36.243Z,1.67
2023-04-01T01:59:07.389Z,1.90
2023-04-01T02:01:38.388Z,1.50
2023-04-01T02:04:05.899Z,1.63
2023-04-01T02:06:39.119Z,1.60
2023-04-01T02:09:08.679Z,1.40
2023-04-01T02:11:48.072Z,1.40
2023-04-01T02:14:16.837Z,1.23
2023-04-01T02:17:04.565Z,1.23
2023-04-01T02:19:39.988Z,1.33
2023-04-01T02:22:12.793Z,1.60
2023-04-01T02:24:41.104Z,1.53
2023-04-01T02:27:08.391Z,1.70
2023-04-01T02:29:35.474Z,2.00
2023-04-01T02:32:03.845Z,2.10
2023-04-01T02:34:30.950Z,2.20
2023-04-01T02:36:58.348Z,1.97
2023-04-01T02:39:27.336Z,1.80
2023-04-01T02:41:54.587Z,1.83
2023-04-01T02:44:21.467Z,1.97
2023-04-01T02:46:48.321Z,2.10
2023-04-01T02:49:15.469Z,2.07
2023-04-01T02:51:42.385Z,1.80
2023-04-01T02:54:09.182Z,1.43
2023-04-01T02:56:36.023Z,1.50
2023-04-01T02:59:02.938Z,1.60
2023-04-01T03:01:29.822Z,1.90
2023-04-01T03:03:56.658Z,2.10
2023-04-01T03:06:23.532Z,2.40
2023-04-01T03:08:50.584Z,1.83
2023-04-01T03:11:17.402Z,2.20
2023-04-01T03:13:44.389Z,2.20
2023-04-01T03:16:11.475Z,1.97
2023-04-01T03:18:38.262Z,1.50
2023-04-01T03:21:16.841Z,1.83
2023-04-01T03:23:43.831Z,1.63
2023-04-01T03:26:10.915Z,1.67
2023-04-01T03:28:37.875Z,2.03
2023-04-01T03:31:04.802Z,1.63
2023-04-01T03:33:32.219Z,2.00
2023-04-01T03:35:59.374Z,2.10
2023-04-01T03:38:26.272Z,2.40
2023-04-01T03:40:53.209Z,2.73
2023-04-01T03:43:20.069Z,2.47
2023-04-01T03:45:48.712Z,2.40
2023-04-01T03:48:16.353Z,2.53
2023-04-01T03:50:43.633Z,2.77
2023-04-01T03:53:10.895Z,2.50
2023-04-01T03:55:38.194Z,2.50
2023-04-01T03:58:06.408Z,2.50
2023-04-01T04:00:33.434Z,2.87
2023-04-01T04:03:01.751Z,2.47
2023-04-01T04:05:28.752Z,2.10
2023-04-01T04:07:56.089Z,2.20
2023-04-01T04:10:24.237Z,1.83
2023-04-01T04:12:51.489Z,1.70
2023-04-01T04:15:18.866Z,1.93
2023-04-01T04:17:46.517Z,1.90
2023-04-01T04:20:13.877Z,1.87
2023-04-01T04:22:40.985Z,1.87
2023-04-01T04:25:08.667Z,1.97
2023-04-01T04:27:36.236Z,1.57
2023-04-01T04:30:04.234Z,2.20
2023-04-01T04:32:31.693Z,2.03
2023-04-01T04:34:58.635Z,1.60
2023-04-01T04:37:26.800Z,2.10
2023-04-01T04:39:53.704Z,2.23
2023-04-01T04:42:20.553Z,2.60
2023-04-01T04:44:47.420Z,2.20
2023-04-01T04:47:14.430Z,2.60
2023-04-01T04:49:41.387Z,2.70
2023-04-01T04:52:08.364Z,3.30
2023-04-01T04:54:35.495Z,3.73
2023-04-01T04:57:03.557Z,3.87
2023-04-01T04:59:31.322Z,4.37
2023-04-01T05:01:58.192Z,4.73
2023-04-01T05:04:24.976Z,4.77
2023-04-01T05:06:52.729Z,4.80
2023-04-01T05:09:19.601Z,5.53
2023-04-01T05:11:46.438Z,5.07
2023-04-01T05:14:17.134Z,5.60
2023-04-01T05:16:44.165Z,5.37
2023-04-01T05:19:11.144Z,5.37
2023-04-01T05:21:37.922Z,5.70
2023-04-01T05:24:08.156Z,5.43
2023-04-01T05:26:35.059Z,5.93
2023-04-01T05:29:01.992Z,5.97
2023-04-01T05:31:29.261Z,6.17
2023-04-01T05:33:56.676Z,5.80
2023-04-01T05:36:23.679Z,6.17
2023-04-01T05:38:51.714Z,6.27
2023-04-01T05:41:18.604Z,7.03
2023-04-01T05:43:45.688Z,7.20
2023-04-01T05:46:12.633Z,7.53
2023-04-01T05:48:39.873Z,8.47
2023-04-01T05:51:06.908Z,7.93
2023-04-01T05:53:33.831Z,7.90
2023-04-01T05:56:04.618Z,8.67
2023-04-01T05:58:31.931Z,8.30
2023-04-01T06:01:11.353Z,7.77
2023-04-01T06:03:41.159Z,7.10
2023-04-01T06:06:24.316Z,7.23
2023-04-01T06:08:51.907Z,7.33
2023-04-01T06:11:56.776Z,6.40
2023-04-01T06:14:41.567Z,6.93
2023-04-01T06:17:23.759Z,6.97
2023-04-01T06:20:08.561Z,7.30
2023-04-01T06:22:47.436Z,6.73
2023-04-01T06:25:42.092Z,6.67
2023-04-01T06:28:36.216Z,6.57
2023-04-01T06:31:27.855Z,7.13
2023-04-01T06:34:09.934Z,7.17
2023-04-01T06:37:01.470Z,7.70
2023-04-01T06:40:10.854Z,7.73
2023-04-01T06:42:51.332Z,8.73
2023-04-01T06:45:44.294Z,8.50
2023-04-01T06:48:37.134Z,8.07
2023-04-01T06:51:19.251Z,7.90
2023-04-01T06:54:07.287Z,8.37
2023-04-01T06:56:36.363Z,7.73
2023-04-01T06:59:22.038Z,8.63
2023-04-01T07:02:13.798Z,8.63
2023-04-01T07:04:45.579Z,8.33
2023-04-01T07:07:35.674Z,6.83
2023-04-01T07:10:10.684Z,7.10
2023-04-01T07:12:50.215Z,7.77
2023-04-01T07:15:22.207Z,6.97
2023-04-01T07:17:56.571Z,6.83
2023-04-01T07:20:29.006Z,7.37
2023-04-01T07:23:02.520Z,7.53
2023-04-01T07:25:37.790Z,6.77
2023-04-01T07:28:17.611Z,7.07
2023-04-01T07:31:22.578Z,6.27
2023-04-01T07:34:44.730Z,5.27
2023-04-01T07:37:26.393Z,5.97
2023-04-01T07:39:59.105Z,6.10
2023-04-01T07:42:38.288Z,6.37
2023-04-01T07:45:17.416Z,6.60
2023-04-01T07:47:59.695Z,6.53
2023-04-01T07:50:41.384Z,6.73
2023-04-01T07:53:16.864Z,6.77
2023-04-01T07:56:02.324Z,7.30
2023-04-01T07:58:47.967Z,7.27
2023-04-01T08:01:30.420Z,8.93
2023-04-01T08:04:29.736Z,9.30
2023-04-01T08:07:07.982Z,7.80
2023-04-01T08:10:03.558Z,8.83
2023-04-01T08:13:03.348Z,8.77
2023-04-01T08:15:56.290Z,8.13
2023-04-01T08:18:39.133Z,8.67
2023-04-01T08:21:22.027Z,8.07
2023-04-01T08:23:52.576Z,8.37
2023-04-01T08:26:22.391Z,8.90
2023-04-01T08:29:23.880Z,8.77
2023-04-01T08:31:56.824Z,8.57
2023-04-01T08:34:37.448Z,8.90
2023-04-01T08:37:13.445Z,8.43
2023-04-01T08:39:52.306Z,9.27
2023-04-01T08:42:45.603Z,8.23
2023-04-01T08:45:19.624Z,7.40
2023-04-01T08:48:09.828Z,8.20
2023-04-01T08:51:09.644Z,8.33
2023-04-01T08:54:02.879Z,8.00
2023-04-01T08:57:22.019Z,7.33
2023-04-01T08:59:59.703Z,7.20
2023-04-01T09:03:01.801Z,7.57
2023-04-01T09:06:13.829Z,6.53
2023-04-01T09:08:55.326Z,7.03
2023-04-01T09:11:58.788Z,6.83
2023-04-01T09:14:59.339Z,6.57
2023-04-01T09:17:31.730Z,6.50
2023-04-01T09:20:15.496Z,6.87
2023-04-01T09:23:11.115Z,6.40
2023-04-01T09:25:52.774Z,6.47
2023-04-01T09:28:20.845Z,6.23
2023-04-01T09:31:05.463Z,5.67
2023-04-01T09:33:44.251Z,6.57
2023-04-01T09:36:17.256Z,6.10
2023-04-01T09:39:14.147Z,6.10
2023-04-01T09:41:58.139Z,5.90
2023-04-01T09:45:06.187Z,6.33
2023-04-01T09:47:45.631Z,5.87
2023-04-01T09:50:21.629Z,5.83
2023-04-01T09:53:15.792Z,5.33
2023-04-01T09:56:05.883Z,5.07
2023-04-01T09:58:43.806Z,4.97
2023-04-01T10:01:45.631Z,5.03
2023-04-01T10:04:34.378Z,4.43
2023-04-01T10:07:29.493Z,4.57
2023-04-01T10:09:59.004Z,4.40
2023-04-01T10:13:03.697Z,4.60
2023-04-01T10:15:36.452Z,4.37
2023-04-01T10:18:35.703Z,4.17
2023-04-01T10:21:08.521Z,4.57
2023-04-01T10:23:46.353Z,4.97
2023-04-01T10:26:31.698Z,4.53
2023-04-01T10:29:21.138Z,4.63
2023-04-01T10:32:24.387Z,4.33
2023-04-01T10:35:30.109Z,4.60
2023-04-01T10:38:57.518Z,5.37
2023-04-01T10:41:29.435Z,5.07
2023-04-01T10:44:26.499Z,4.67
2023-04-01T10:47:15.054Z,4.43
2023-04-01T10:50:09.629Z,4.73
2023-04-01T10:52:42.542Z,4.90
2023-04-01T10:55:33.620Z,5.20
2023-04-01T10:58:38.813Z,5.40
2023-04-01T11:01:27.320Z,5.20
2023-04-01T11:04:32.027Z,5.17
2023-04-01T11:07:36.486Z,5.23
2023-04-01T11:10:09.341Z,5.00
2023-04-01T11:13:04.073Z,5.53
2023-04-01T11:15:42.929Z,4.77
2023-04-01T11:18:37.414Z,4.80
2023-04-01T11:21:31.745Z,4.87
2023-04-01T11:24:23.178Z,4.77
2023-04-01T11:27:11.986Z,4.70
2023-04-01T11:30:04.158Z,4.73
2023-04-01T11:32:47.700Z,4.50
2023-04-01T11:35:36.407Z,3.40
2023-04-01T11:38:18.728Z,2.90
2023-04-01T11:41:03.422Z,2.70
2023-04-01T11:43:47.310Z,3.10
2023-04-01T11:46:37.238Z,2.87
2023-04-01T11:49:20.024Z,2.60
2023-04-01T11:52:06.873Z,2.67
2023-04-01T11:54:54.856Z,2.73
2023-04-01T11:57:46.460Z,2.57
2023-04-01T12:00:42.050Z,2.50
2023-04-01T12:03:57.505Z,2.70
2023-04-01T12:06:49.451Z,2.40
2023-04-01T12:09:34.095Z,2.77
2023-04-01T12:12:24.832Z,2.97
2023-04-01T12:15:04.144Z,2.90
2023-04-01T12:17:49.935Z,3.33
2023-04-01T12:21:01.519Z,2.90
2023-04-01T12:23:48.617Z,3.20
2023-04-01T12:26:28.330Z,3.27
2023-04-01T12:29:15.283Z,3.03
2023-04-01T12:32:25.169Z,3.50
2023-04-01T12:35:14.995Z,3.13
2023-04-01T12:37:56.875Z,3.40
2023-04-01T12:40:57.527Z,2.90
2023-04-01T12:43:33.357Z,3.30
2023-04-01T12:46:41.873Z,3.13
2023-04-01T12:49:27.368Z,2.63
2023-04-01T12:52:26.683Z,2.93
2023-04-01T12:54:53.489Z,3.03
2023-04-01T12:57:45.138Z,2.90
2023-04-01T13:00:41.029Z,2.90
2023-04-01T13:03:18.331Z,3.10
2023-04-01T13:05:57.332Z,2.20
2023-04-01T13:08:24.059Z,2.60
2023-04-01T13:11:03.621Z,2.33
2023-04-01T13:14:25.033Z,2.40
2023-04-01T13:17:18.142Z,3.00
2023-04-01T13:20:06.608Z,3.33
2023-04-01T13:22:38.932Z,2.83
2023-04-01T13:25:43.587Z,3.47
2023-04-01T13:28:22.356Z,3.53
2023-04-01T13:31:20.971Z,4.70
2023-04-01T13:34:05.822Z,4.03
2023-04-01T13:37:04.668Z,3.93
2023-04-01T13:39:52.390Z,4.17
2023-04-01T13:42:33.082Z,4.23
2023-04-01T13:45:24.837Z,4.90
2023-04-01T13:48:14.669Z,4.13
2023-04-01T13:51:13.725Z,3.93
2023-04-01T13:54:37.741Z,3.70
2023-04-01T13:57:35.960Z,4.57
2023-04-01T14:00:26.707Z,4.30
2023-04-01T14:02:59.424Z,4.90
2023-04-01T14:05:49.212Z,4.47
2023-04-01T14:08:34.371Z,4.60
2023-04-01T14:11:14.910Z,4.10
2023-04-01T14:14:20.913Z,4.87
2023-04-01T14:17:29.120Z,4.80
2023-04-01T14:20:14.339Z,4.63
2023-04-01T14:22:41.200Z,5.30
2023-04-01T14:25:37.650Z,5.03
2023-04-01T14:28:29.509Z,4.93
2023-04-01T14:31:27.340Z,5.20
2023-04-01T14:34:30.481Z,5.30
2023-04-01T14:37:16.685Z,5.47
2023-04-01T14:40:01.454Z,4.87
2023-04-01T14:42:39.802Z,5.00
2023-04-01T14:45:48.399Z,5.80
2023-04-01T14:48:50.462Z,4.90
2023-04-01T14:51:24.602Z,5.03
2023-04-01T14:54:12.745Z,5.50
2023-04-01T14:56:51.507Z,5.43
2023-04-01T14:59:24.332Z,5.03
2023-04-01T15:02:00.874Z,5.40
2023-04-01T15:04:38.432Z,5.47
2023-04-01T15:07:36.451Z,5.67
2023-04-01T15:10:21.057Z,4.90
2023-04-01T15:13:13.888Z,5.30
2023-04-01T15:16:02.493Z,5.07
2023-04-01T15:18:53.460Z,4.83
2023-04-01T15:21:34.859Z,4.70
2023-04-01T15:24:02.102Z,5.00
2023-04-01T15:26:54.605Z,4.70
2023-04-01T15:30:07.307Z,4.97
2023-04-01T15:32:46.423Z,5.07
2023-04-01T15:35:52.461Z,4.97
2023-04-01T15:38:22.557Z,4.63
2023-04-01T15:41:03.773Z,4.67
2023-04-01T15:43:53.206Z,5.00
2023-04-01T15:46:22.849Z,4.77
2023-04-01T15:48:55.386Z,5.53
2023-04-01T15:51:41.025Z,5.40
2023-04-01T15:54:28.657Z,5.77
2023-04-01T15:57:12.531Z,5.10
2023-04-01T16:00:09.835Z,4.73
2023-04-01T16:02:44.562Z,5.37
2023-04-01T16:05:42.286Z,5.20
2023-04-01T16:08:27.206Z,4.87
2023-04-01T16:10:56.882Z,4.03
2023-04-01T16:13:33.393Z,4.60
2023-04-01T16:16:37.730Z,4.07
2023-04-01T16:19:13.419Z,4.37
2023-04-01T16:22:03.178Z,3.73
2023-04-01T16:24:43.002Z,3.97
2023-04-01T16:27:09.790Z,3.73
2023-04-01T16:29:44.823Z,3.47
2023-04-01T16:32:23.936Z,2.87
2023-04-01T16:35:18.600Z,3.20
2023-04-01T16:37:53.313Z,3.10
2023-04-01T16:40:35.610Z,3.50
2023-04-01T16:43:08.594Z,3.03
2023-04-01T16:46:09.085Z,3.37
2023-04-01T16:48:53.032Z,3.50
2023-04-01T16:51:20.854Z,3.57
2023-04-01T16:54:25.128Z,3.37
2023-04-01T16:56:56.556Z,3.77
2023-04-01T16:59:35.723Z,3.20
2023-04-01T17:02:15.233Z,3.60
2023-04-01T17:04:48.795Z,3.60
2023-04-01T17:07:41.914Z,3.40
2023-04-01T17:10:27.663Z,3.00
2023-04-01T17:13:09.546Z,3.80
2023-04-01T17:15:54.441Z,3.07
2023-04-01T17:18:40.388Z,3.03
2023-04-01T17:21:29.580Z,3.07
2023-04-01T17:24:33.511Z,2.90
2023-04-01T17:27:14.634Z,2.67
2023-04-01T17:30:13.837Z,2.50
2023-04-01T17:33:22.739Z,5.53
2023-04-01T17:35:55.107Z,2.90
2023-04-01T17:39:00.892Z,3.10
2023-04-01T17:41:31.562Z,3.03
2023-04-01T17:44:07.214Z,2.77
2023-04-01T17:46:46.186Z,3.47
2023-04-01T17:49:16.109Z,7.23
2023-04-01T17:52:25.906Z,4.47
2023-04-01T17:55:18.932Z,3.53
2023-04-01T17:57:48.733Z,3.63
2023-04-01T18:01:03.643Z,5.57
2023-04-01T18:03:52.539Z,4.00
2023-04-01T18:06:27.144Z,3.40
2023-04-01T18:09:15.810Z,3.63
2023-04-01T18:12:02.316Z,6.37
2023-04-01T18:14:41.909Z,4.60
2023-04-01T18:17:41.126Z,5.60
2023-04-01T18:20:32.969Z,5.10
2023-04-01T18:23:03.737Z,6.87
2023-04-01T18:25:43.751Z,6.10
2023-04-01T18:28:32.087Z,5.20
2023-04-01T18:31:07.088Z,3.63
2023-04-01T18:33:50.251Z,4.67
2023-04-01T18:36:28.595Z,4.20
2023-04-01T18:39:02.941Z,4.33
2023-04-01T18:41:42.427Z,4.07
2023-04-01T18:44:35.941Z,4.63
2023-04-01T18:47:33.645Z,4.37
2023-04-01T18:50:27.423Z,4.20
2023-04-01T18:53:13.192Z,4.23
2023-04-01T18:55:44.199Z,4.27
2023-04-01T18:58:27.848Z,4.47
2023-04-01T19:01:24.833Z,3.93
2023-04-01T19:04:19.314Z,4.20
2023-04-01T19:06:53.315Z,4.57
2023-04-01T19:09:31.944Z,4.33
2023-04-01T19:12:08.593Z,4.27
2023-04-01T19:14:46.621Z,4.13
2023-04-01T19:17:47.510Z,4.27
2023-04-01T19:20:23.410Z,4.13
2023-04-01T19:23:18.189Z,3.50
2023-04-01T19:26:01.861Z,3.47
2023-04-01T19:28:56.051Z,3.90
2023-04-01T19:31:42.890Z,3.40
2023-04-01T19:34:18.363Z,4.03
2023-04-01T19:37:11.181Z,4.87
2023-04-01T19:39:55.866Z,4.70
2023-04-01T19:43:01.526Z,4.90
2023-04-01T19:45:53.056Z,3.97
2023-04-01T19:48:44.251Z,4.73
2023-04-01T19:51:24.507Z,4.57
2023-04-01T19:54:15.616Z,4.57
2023-04-01T19:56:48.346Z,5.40
2023-04-01T19:59:32.823Z,5.10
2023-04-01T20:02:55.103Z,4.93
2023-04-01T20:05:31.309Z,5.43
2023-04-01T20:08:11.235Z,5.10
2023-04-01T20:11:04.582Z,5.27
2023-04-01T20:13:34.164Z,4.80
2023-04-01T20:16:12.017Z,4.77
2023-04-01T20:18:45.547Z,5.17
2023-04-01T20:21:15.527Z,5.80
2023-04-01T20:23:46.079Z,4.90
2023-04-01T20:26:15.194Z,5.23
2023-04-01T20:28:58.668Z,5.13
2023-04-01T20:31:27.417Z,12.87
2023-04-01T20:34:06.758Z,11.03
2023-04-01T20:36:45.861Z,9.87
2023-04-01T20:39:24.661Z,4.93
2023-04-01T20:42:18.730Z,4.83
2023-04-01T20:45:15.352Z,4.60
2023-04-01T20:48:17.452Z,4.43
2023-04-01T20:50:50.090Z,4.07
2023-04-01T20:53:29.251Z,4.23
2023-04-01T20:56:14.089Z,3.30
2023-04-01T20:59:18.596Z,3.07
2023-04-01T21:01:52.260Z,3.40
2023-04-01T21:04:38.574Z,3.63
2023-04-01T21:07:17.467Z,3.67
2023-04-01T21:09:57.079Z,3.63
2023-04-01T21:12:31.900Z,4.03
2023-04-01T21:15:10.971Z,4.23
2023-04-01T21:17:56.149Z,3.67
2023-04-01T21:20:45.120Z,4.13
2023-04-01T21:23:43.038Z,4.23
2023-04-01T21:26:29.752Z,4.83
2023-04-01T21:29:24.661Z,5.10
2023-04-01T21:32:16.810Z,5.20
2023-04-01T21:34:45.737Z,5.30
2023-04-01T21:37:31.469Z,5.80
2023-04-01T21:40:16.743Z,5.67
2023-04-01T21:42:46.784Z,6.07
2023-04-01T21:46:10.052Z,6.40
2023-04-01T21:48:47.445Z,6.00
2023-04-01T21:51:55.843Z,5.20
2023-04-01T21:54:48.103Z,6.50
2023-04-01T21:57:37.489Z,6.40
2023-04-01T22:00:27.125Z,6.50
2023-04-01T22:03:26.842Z,6.53
2023-04-01T22:06:09.761Z,7.20
2023-04-01T22:08:39.396Z,7.03
2023-04-01T22:11:18.065Z,6.47
2023-04-01T22:13:44.918Z,6.70
2023-04-01T22:16:14.599Z,6.60
2023-04-01T22:18:50.343Z,7.60
2023-04-01T22:21:17.472Z,7.33
2023-04-01T22:24:05.573Z,8.13
2023-04-01T22:26:55.383Z,7.07
2023-04-01T22:29:59.671Z,7.07
2023-04-01T22:32:38.275Z,7.23
2023-04-01T22:35:14.847Z,7.30
2023-04-01T22:37:57.158Z,7.20
2023-04-01T22:40:28.917Z,7.70
2023-04-01T22:43:21.068Z,6.30
2023-04-01T22:46:24.470Z,6.10
2023-04-01T22:49:19.118Z,6.57
2023-04-01T22:52:09.991Z,6.43
2023-04-01T22:54:48.929Z,6.47
2023-04-01T22:57:35.809Z,6.50
2023-04-01T23:00:13.348Z,6.43
2023-04-01T23:03:01.598Z,5.43
2023-04-01T23:05:29.974Z,6.00
2023-04-01T23:08:34.431Z,6.87
2023-04-01T23:11:04.588Z,5.73
2023-04-01T23:13:39.044Z,5.83
2023-04-01T23:16:08.134Z,6.23
2023-04-01T23:19:06.195Z,5.97
2023-04-01T23:22:00.650Z,6.20
2023-04-01T23:24:38.412Z,6.20
2023-04-01T23:27:12.823Z,5.27
2023-04-01T23:29:41.034Z,5.93
2023-04-01T23:32:17.567Z,4.67
2023-04-01T23:34:52.653Z,4.97
2023-04-01T23:37:20.930Z,5.63
2023-04-01T23:39:51.278Z,5.97
2023-04-01T23:42:23.448Z,5.73
2023-04-01T23:44:56.725Z,4.90
2023-04-01T23:47:33.735Z,5.30
2023-04-01T23:50:12.589Z,4.80
2023-04-01T23:52:49.737Z,4.77
2023-04-01T23:55:25.367Z,4.33
2023-04-01T23:58:07.034Z,5.10
